createdAt,value
2023-02-26T00:00:15.085Z,4.55
2023-02-26T00:02:43.086Z,3.80
2023-02-26T00:05:10.371Z,4.35
2023-02-26T00:07:38.211Z,3.83
2023-02-26T00:10:07.430Z,4.03
2023-02-26T00:12:34.971Z,3.75
2023-02-26T00:15:01.936Z,4.07
2023-02-26T00:17:57.907Z,3.88
2023-02-26T00:20:26.170Z,4.25
2023-02-26T00:22:53.193Z,3.90
2023-02-26T00:25:19.974Z,3.85
2023-02-26T00:27:47.291Z,3.58
2023-02-26T00:30:14.317Z,3.70
2023-02-26T00:32:41.833Z,3.88
2023-02-26T00:35:11.548Z,3.92
2023-02-26T00:40:38.742Z,3.17
2023-02-26T00:43:07.332Z,3.90
2023-02-26T00:45:36.020Z,3.58
2023-02-26T00:48:22.872Z,3.75
2023-02-26T00:51:00.092Z,3.17
2023-02-26T00:53:40.325Z,3.28
2023-02-26T00:56:08.036Z,3.40
2023-02-26T00:58:34.795Z,3.20
2023-02-26T01:01:02.119Z,3.40
2023-02-26T01:03:29.093Z,3.20
2023-02-26T01:05:56.132Z,3.17
2023-02-26T01:08:24.654Z,3.28
2023-02-26T01:10:51.598Z,3.42
2023-02-26T01:13:18.489Z,3.20
2023-02-26T01:15:48.912Z,3.35
2023-02-26T01:18:34.798Z,3.20
2023-02-26T01:21:04.813Z,2.78
2023-02-26T01:23:35.628Z,3.13
2023-02-26T01:26:24.691Z,2.90
2023-02-26T01:28:52.324Z,3.08
2023-02-26T01:31:38.883Z,3.00
2023-02-26T01:34:23.185Z,2.88
2023-02-26T01:36:58.529Z,3.00
2023-02-26T01:39:30.341Z,3.10
2023-02-26T01:42:24.034Z,2.90
2023-02-26T01:45:08.205Z,3.00
2023-02-26T01:47:58.613Z,2.80
2023-02-26T01:50:29.929Z,2.80
2023-02-26T01:53:16.063Z,2.85
2023-02-26T01:55:45.043Z,2.80
2023-02-26T01:58:11.953Z,2.80
2023-02-26T02:00:38.777Z,3.00
2023-02-26T02:03:05.665Z,2.78
2023-02-26T02:05:36.535Z,3.10
2023-02-26T02:08:03.797Z,2.50
2023-02-26T02:10:30.708Z,3.00
2023-02-26T02:13:25.205Z,2.63
2023-02-26T02:16:12.551Z,2.60
2023-02-26T02:18:53.262Z,2.60
2023-02-26T02:21:23.695Z,2.83
2023-02-26T02:24:11.249Z,2.60
2023-02-26T02:26:52.008Z,2.50
2023-02-26T02:29:45.584Z,2.30
2023-02-26T02:32:18.874Z,2.78
2023-02-26T02:34:53.592Z,2.90
2023-02-26T02:37:38.458Z,2.35
2023-02-26T02:40:11.433Z,2.42
2023-02-26T02:42:46.110Z,2.13
2023-02-26T02:45:27.538Z,2.33
2023-02-26T02:47:59.174Z,2.30
2023-02-26T02:50:46.063Z,2.30
2023-02-26T02:53:29.541Z,2.20
2023-02-26T02:56:06.680Z,2.10
2023-02-26T02:58:37.687Z,2.10
2023-02-26T03:01:08.095Z,2.47
2023-02-26T03:03:59.540Z,2.30
2023-02-26T03:06:26.381Z,2.30
2023-02-26T03:08:53.657Z,2.25
2023-02-26T03:11:20.695Z,2.08
2023-02-26T03:13:49.460Z,2.00
2023-02-26T03:16:35.253Z,2.10
2023-02-26T03:19:22.380Z,2.20
2023-02-26T03:22:06.388Z,2.10
2023-02-26T03:25:17.382Z,2.10
2023-02-26T03:27:50.039Z,2.00
2023-02-26T03:30:27.024Z,2.00
2023-02-26T03:33:06.334Z,2.25
2023-02-26T03:35:53.718Z,1.98
2023-02-26T03:38:30.360Z,2.30
2023-02-26T03:41:05.550Z,2.10
2023-02-26T03:43:35.590Z,1.80
2023-02-26T03:46:09.664Z,2.13
2023-02-26T03:48:37.080Z,2.10
2023-02-26T03:51:11.024Z,1.85
2023-02-26T03:53:52.222Z,1.90
2023-02-26T03:56:27.733Z,2.00
2023-02-26T03:59:14.179Z,2.00
2023-02-26T04:01:52.841Z,1.75
2023-02-26T04:04:47.664Z,2.10
2023-02-26T04:07:16.599Z,2.30
2023-02-26T04:09:48.357Z,2.10
2023-02-26T04:12:15.682Z,1.95
2023-02-26T04:14:47.265Z,1.88
2023-02-26T04:17:14.092Z,1.90
2023-02-26T04:19:41.101Z,1.90
2023-02-26T04:22:07.878Z,2.00
2023-02-26T04:24:34.822Z,1.98
2023-02-26T04:27:02.610Z,1.67
2023-02-26T04:29:30.629Z,1.95
2023-02-26T04:31:57.699Z,1.90
2023-02-26T04:34:24.748Z,1.90
2023-02-26T04:36:52.838Z,1.80
2023-02-26T04:39:20.073Z,1.70
2023-02-26T04:41:46.826Z,1.60
2023-02-26T04:44:14.539Z,1.63
2023-02-26T04:46:42.162Z,1.80
2023-02-26T04:49:09.694Z,1.70
2023-02-26T04:51:38.259Z,1.75
2023-02-26T04:56:34.786Z,1.80
2023-02-26T04:59:03.128Z,2.08
2023-02-26T05:01:31.258Z,1.60
2023-02-26T05:03:59.379Z,2.60
2023-02-26T05:06:26.320Z,1.92
2023-02-26T05:08:53.340Z,1.80
2023-02-26T05:11:20.465Z,1.65
2023-02-26T05:13:47.886Z,1.67
2023-02-26T05:16:14.647Z,1.63
2023-02-26T05:18:41.720Z,1.70
2023-02-26T05:21:08.488Z,1.90
2023-02-26T05:23:35.354Z,2.22
2023-02-26T05:26:02.307Z,1.83
2023-02-26T05:28:29.968Z,1.70
2023-02-26T05:30:57.958Z,1.63
2023-02-26T05:33:25.420Z,1.85
2023-02-26T05:35:52.305Z,1.80
2023-02-26T05:38:19.079Z,1.50
2023-02-26T05:40:45.799Z,1.77
2023-02-26T05:43:12.574Z,1.63
2023-02-26T05:45:39.351Z,1.90
2023-02-26T05:48:06.123Z,1.80
2023-02-26T05:50:33.049Z,1.70
2023-02-26T05:52:59.740Z,1.77
2023-02-26T05:55:26.453Z,1.70
2023-02-26T05:57:53.278Z,1.48
2023-02-26T06:00:20.354Z,1.70
2023-02-26T06:02:47.109Z,1.60
2023-02-26T06:05:14.033Z,1.50
2023-02-26T06:07:40.740Z,1.50
2023-02-26T06:10:08.635Z,1.50
2023-02-26T06:12:36.149Z,1.80
2023-02-26T06:15:03.761Z,1.60
2023-02-26T06:17:30.571Z,1.80
2023-02-26T06:19:57.343Z,1.40
2023-02-26T06:22:24.034Z,1.60
2023-02-26T06:24:50.747Z,1.60
2023-02-26T06:27:17.849Z,1.45
2023-02-26T06:29:44.576Z,1.70
2023-02-26T06:32:11.485Z,1.50
2023-02-26T06:34:38.285Z,1.50
2023-02-26T06:37:05.298Z,1.40
2023-02-26T06:39:32.664Z,1.35
2023-02-26T06:41:59.891Z,1.60
2023-02-26T06:44:26.615Z,1.20
2023-02-26T06:46:53.434Z,1.27
2023-02-26T06:49:20.276Z,1.33
2023-02-26T06:51:47.023Z,1.50
2023-02-26T06:54:13.778Z,1.27
2023-02-26T06:56:40.517Z,1.33
2023-02-26T06:59:07.356Z,1.52
2023-02-26T07:01:34.077Z,1.67
2023-02-26T07:04:00.957Z,1.20
2023-02-26T07:06:28.318Z,1.27
2023-02-26T07:08:55.383Z,1.50
2023-02-26T07:11:22.338Z,1.42
2023-02-26T07:13:49.157Z,1.30
2023-02-26T07:16:15.892Z,1.60
2023-02-26T07:18:42.636Z,1.17
2023-02-26T07:21:09.450Z,1.33
2023-02-26T07:23:36.219Z,1.15
2023-02-26T07:26:03.061Z,1.10
2023-02-26T07:28:29.822Z,1.35
2023-02-26T07:30:57.576Z,1.23
2023-02-26T07:33:25.058Z,1.50
2023-02-26T07:35:51.774Z,1.40
2023-02-26T07:38:19.623Z,1.50
2023-02-26T07:40:47.988Z,1.73
2023-02-26T07:43:14.794Z,1.67
2023-02-26T07:45:41.602Z,1.70
2023-02-26T07:48:08.413Z,1.52
2023-02-26T07:50:35.157Z,1.80
2023-02-26T07:53:01.908Z,1.40
2023-02-26T07:55:29.071Z,1.60
2023-02-26T07:57:55.794Z,1.30
2023-02-26T08:00:23.621Z,1.45
2023-02-26T08:02:50.376Z,1.50
2023-02-26T08:05:17.572Z,1.83
2023-02-26T08:07:44.449Z,1.60
2023-02-26T08:10:12.045Z,1.70
2023-02-26T08:12:38.820Z,1.35
2023-02-26T08:15:06.301Z,1.52
2023-02-26T08:17:33.114Z,1.40
2023-02-26T08:19:59.849Z,1.48
2023-02-26T08:22:26.998Z,1.58
2023-02-26T08:24:53.826Z,1.27
2023-02-26T08:27:20.775Z,1.60
2023-02-26T08:29:50.204Z,1.45
2023-02-26T08:32:19.718Z,1.50
2023-02-26T08:37:14.183Z,1.50
2023-02-26T08:39:41.334Z,1.42
2023-02-26T08:42:09.163Z,1.50
2023-02-26T08:44:36.143Z,1.60
2023-02-26T08:47:03.777Z,1.90
2023-02-26T08:49:30.909Z,1.48
2023-02-26T08:51:57.736Z,1.70
2023-02-26T08:54:24.868Z,1.35
2023-02-26T08:56:53.397Z,1.55
2023-02-26T08:59:20.131Z,1.55
2023-02-26T09:01:47.017Z,1.60
2023-02-26T09:04:13.899Z,1.95
2023-02-26T09:06:40.636Z,1.67
2023-02-26T09:09:07.508Z,1.70
2023-02-26T09:11:34.705Z,2.00
2023-02-26T09:14:03.305Z,2.53
2023-02-26T09:16:31.010Z,1.73
2023-02-26T09:18:59.038Z,1.65
2023-02-26T09:21:25.799Z,1.90
2023-02-26T09:23:52.607Z,2.05
2023-02-26T09:26:19.382Z,2.00
2023-02-26T09:28:46.246Z,1.90
2023-02-26T09:31:13.111Z,1.77
2023-02-26T09:33:39.990Z,1.60
2023-02-26T09:36:07.454Z,1.90
2023-02-26T09:38:35.890Z,2.08
2023-02-26T09:41:06.322Z,2.00
2023-02-26T09:43:44.487Z,2.50
2023-02-26T09:46:35.298Z,2.10
2023-02-26T09:49:26.525Z,1.90
2023-02-26T09:52:01.420Z,1.75
2023-02-26T09:54:38.051Z,1.80
2023-02-26T09:57:06.350Z,2.00
2023-02-26T09:59:35.053Z,1.90
2023-02-26T10:02:20.084Z,1.70
2023-02-26T10:05:13.385Z,1.80
2023-02-26T10:07:46.021Z,1.90
2023-02-26T10:10:20.271Z,1.60
2023-02-26T10:12:49.488Z,1.80
2023-02-26T10:15:38.845Z,1.65
2023-02-26T10:21:12.549Z,1.70
2023-02-26T10:23:48.686Z,1.92
2023-02-26T10:26:31.556Z,2.17
2023-02-26T10:29:23.370Z,2.03
2023-02-26T10:32:24.161Z,1.90
2023-02-26T10:34:56.566Z,1.90
2023-02-26T10:37:48.556Z,1.92
2023-02-26T10:40:30.247Z,2.10
2023-02-26T10:43:05.082Z,1.75
2023-02-26T10:45:49.913Z,1.80
2023-02-26T10:48:36.914Z,1.80
2023-02-26T10:51:14.470Z,1.50
2023-02-26T10:53:46.661Z,1.42
2023-02-26T10:56:22.643Z,1.30
2023-02-26T10:58:51.123Z,1.08
2023-02-26T11:01:20.615Z,1.70
2023-02-26T11:03:49.522Z,1.23
2023-02-26T11:06:24.202Z,1.63
2023-02-26T11:08:53.963Z,1.60
2023-02-26T11:11:52.536Z,2.10
2023-02-26T11:14:21.776Z,1.60
2023-02-26T11:16:58.128Z,2.60
2023-02-26T11:19:37.159Z,7.97
2023-02-26T11:22:06.774Z,8.65
2023-02-26T11:24:36.998Z,7.68
2023-02-26T11:27:05.330Z,8.68
2023-02-26T11:29:43.103Z,8.93
2023-02-26T11:32:22.084Z,8.48
2023-02-26T11:37:22.423Z,9.40
2023-02-26T11:39:56.898Z,10.00
2023-02-26T11:42:24.046Z,10.30
2023-02-26T11:44:51.336Z,10.00
2023-02-26T11:47:21.320Z,10.95
2023-02-26T11:49:52.466Z,11.02
2023-02-26T11:52:35.477Z,9.95
2023-02-26T11:55:04.971Z,8.90
2023-02-26T11:57:33.278Z,8.63
2023-02-26T12:00:01.345Z,8.60
2023-02-26T12:02:35.050Z,7.07
2023-02-26T12:05:04.169Z,7.50
2023-02-26T12:07:31.234Z,7.15
2023-02-26T12:09:57.951Z,6.53
2023-02-26T12:12:50.659Z,6.78
2023-02-26T12:15:36.250Z,6.20
2023-02-26T12:18:18.409Z,6.13
2023-02-26T12:21:06.563Z,6.20
2023-02-26T12:24:04.306Z,4.45
2023-02-26T12:26:39.612Z,7.00
2023-02-26T12:29:36.737Z,3.97
2023-02-26T12:32:25.158Z,3.08
2023-02-26T12:34:56.944Z,2.60
2023-02-26T12:37:43.172Z,3.20
2023-02-26T12:40:44.140Z,3.03
2023-02-26T12:43:18.696Z,3.10
2023-02-26T12:46:47.890Z,3.83
2023-02-26T12:49:55.539Z,2.47
2023-02-26T12:52:36.732Z,2.38
2023-02-26T12:55:21.810Z,2.13
2023-02-26T12:58:02.013Z,2.63
2023-02-26T13:01:10.218Z,2.47
2023-02-26T13:04:08.100Z,2.10
2023-02-26T13:06:53.034Z,1.63
2023-02-26T13:09:33.305Z,2.35
2023-02-26T13:12:12.375Z,4.43
2023-02-26T13:14:51.720Z,4.90
2023-02-26T13:17:37.411Z,4.70
2023-02-26T13:20:19.128Z,7.85
2023-02-26T13:22:50.461Z,7.82
2023-02-26T13:25:26.559Z,6.40
2023-02-26T13:27:55.444Z,5.82
2023-02-26T13:30:27.838Z,5.25
2023-02-26T13:32:57.229Z,4.97
2023-02-26T13:35:39.303Z,4.15
2023-02-26T13:38:19.454Z,3.65
2023-02-26T13:40:54.867Z,5.43
2023-02-26T13:43:58.988Z,4.32
2023-02-26T13:46:59.633Z,4.38
2023-02-26T13:49:52.281Z,3.40
2023-02-26T13:52:33.115Z,4.20
2023-02-26T13:55:00.012Z,3.72
2023-02-26T13:57:54.057Z,3.78
2023-02-26T14:00:35.950Z,3.80
2023-02-26T14:03:16.253Z,3.60
2023-02-26T14:05:48.839Z,3.40
2023-02-26T14:08:43.990Z,3.38
2023-02-26T14:11:45.802Z,3.10
2023-02-26T14:14:20.554Z,3.38
2023-02-26T14:16:57.389Z,2.97
2023-02-26T14:19:28.870Z,3.00
2023-02-26T14:21:58.877Z,3.05
2023-02-26T14:24:39.619Z,2.88
2023-02-26T14:27:12.142Z,2.88
2023-02-26T14:30:01.020Z,2.92
2023-02-26T14:35:10.380Z,2.83
2023-02-26T14:37:39.868Z,2.60
2023-02-26T14:40:14.240Z,3.00
2023-02-26T14:42:50.232Z,2.70
2023-02-26T14:45:16.885Z,2.58
2023-02-26T14:47:44.993Z,2.47
2023-02-26T14:50:19.028Z,2.57
2023-02-26T14:53:03.325Z,2.60
2023-02-26T14:55:36.187Z,2.53
2023-02-26T14:58:11.920Z,2.60
2023-02-26T15:00:47.906Z,2.50
2023-02-26T15:03:23.661Z,2.22
2023-02-26T15:05:58.644Z,2.00
2023-02-26T15:08:52.984Z,2.20
2023-02-26T15:11:29.021Z,2.40
2023-02-26T15:14:27.997Z,2.45
2023-02-26T15:17:09.873Z,2.50
2023-02-26T15:19:53.068Z,2.30
2023-02-26T15:22:48.854Z,2.70
2023-02-26T15:25:24.774Z,2.20
2023-02-26T15:27:51.868Z,2.55
2023-02-26T15:30:18.900Z,3.42
2023-02-26T15:32:46.493Z,2.60
2023-02-26T15:35:21.346Z,2.40
2023-02-26T15:37:53.803Z,2.75
2023-02-26T15:40:21.021Z,2.17
2023-02-26T15:42:50.986Z,2.30
2023-02-26T15:45:27.894Z,2.55
2023-02-26T15:47:57.947Z,2.38
2023-02-26T15:50:28.459Z,2.40
2023-02-26T15:53:01.845Z,2.45
2023-02-26T15:55:36.654Z,2.03
2023-02-26T15:58:04.634Z,2.20
2023-02-26T16:00:34.495Z,2.10
2023-02-26T16:03:01.591Z,1.95
2023-02-26T16:05:29.650Z,2.08
2023-02-26T16:07:56.882Z,2.25
2023-02-26T16:10:39.496Z,1.70
2023-02-26T16:13:09.406Z,1.80
2023-02-26T16:15:38.520Z,1.65
2023-02-26T16:18:08.400Z,1.83
2023-02-26T16:20:41.764Z,1.77
2023-02-26T16:23:23.178Z,1.60
2023-02-26T16:25:50.719Z,1.60
2023-02-26T16:28:43.877Z,1.80
2023-02-26T16:31:18.807Z,1.60
2023-02-26T16:33:54.568Z,1.92
2023-02-26T16:36:24.829Z,1.85
2023-02-26T16:39:06.965Z,1.70
2023-02-26T16:41:37.771Z,2.15
2023-02-26T16:44:31.063Z,2.47
2023-02-26T16:46:59.117Z,2.40
2023-02-26T16:49:28.957Z,2.53
2023-02-26T16:51:56.889Z,2.30
2023-02-26T16:54:31.216Z,2.65
2023-02-26T16:57:13.893Z,2.50
2023-02-26T16:59:44.373Z,2.30
2023-02-26T17:02:18.548Z,2.72
2023-02-26T17:04:49.836Z,2.47
2023-02-26T17:07:31.003Z,2.08
2023-02-26T17:10:09.817Z,2.25
2023-02-26T17:12:49.383Z,1.90
2023-02-26T17:15:26.765Z,2.40
2023-02-26T17:17:56.714Z,2.20
2023-02-26T17:20:25.135Z,2.05
2023-02-26T17:22:53.101Z,2.10
2023-02-26T17:25:20.838Z,2.83
2023-02-26T17:27:48.737Z,2.38
2023-02-26T17:30:19.021Z,2.28
2023-02-26T17:32:45.869Z,2.45
2023-02-26T17:35:14.107Z,2.47
2023-02-26T17:37:40.908Z,1.83
2023-02-26T17:40:18.432Z,2.25
2023-02-26T17:42:46.588Z,1.80
2023-02-26T17:45:14.339Z,2.20
2023-02-26T17:47:41.488Z,2.03
2023-02-26T17:50:36.539Z,1.90
2023-02-26T17:53:04.487Z,1.55
2023-02-26T17:55:31.857Z,2.00
2023-02-26T17:57:58.820Z,1.65
2023-02-26T18:00:26.467Z,1.77
2023-02-26T18:02:53.506Z,1.83
2023-02-26T18:05:20.493Z,2.10
2023-02-26T18:07:48.101Z,1.63
2023-02-26T18:10:22.195Z,1.98
2023-02-26T18:12:50.590Z,1.95
2023-02-26T18:15:17.700Z,2.10
2023-02-26T18:17:44.590Z,1.80
2023-02-26T18:20:22.351Z,1.83
2023-02-26T18:22:50.496Z,2.20
2023-02-26T18:25:17.642Z,2.53
2023-02-26T18:27:44.938Z,3.03
2023-02-26T18:30:24.049Z,3.85
2023-02-26T18:32:51.859Z,3.45
2023-02-26T18:35:19.055Z,3.55
2023-02-26T18:37:46.186Z,3.28
2023-02-26T18:40:19.289Z,3.28
2023-02-26T18:42:46.248Z,3.60
2023-02-26T18:45:12.999Z,3.17
2023-02-26T18:47:40.185Z,3.10
2023-02-26T18:50:09.008Z,3.33
2023-02-26T18:52:35.758Z,3.38
2023-02-26T18:55:03.082Z,3.38
2023-02-26T18:57:30.546Z,3.00
2023-02-26T18:59:57.300Z,3.13
2023-02-26T19:02:24.293Z,3.00
2023-02-26T19:04:51.418Z,2.92
2023-02-26T19:07:18.552Z,2.83
2023-02-26T19:09:45.294Z,2.95
2023-02-26T19:12:18.663Z,2.70
2023-02-26T19:14:45.514Z,2.75
2023-02-26T19:17:12.262Z,2.63
2023-02-26T19:19:42.114Z,2.53
2023-02-26T19:22:10.015Z,2.80
2023-02-26T19:24:37.200Z,2.28
2023-02-26T19:27:04.273Z,2.95
2023-02-26T19:29:31.268Z,2.60
2023-02-26T19:31:58.184Z,2.78
2023-02-26T19:34:25.343Z,2.95
2023-02-26T19:36:53.353Z,2.92
2023-02-26T19:39:20.181Z,3.10
2023-02-26T19:41:49.107Z,3.60
2023-02-26T19:44:16.928Z,3.60
2023-02-26T19:46:43.974Z,3.33
2023-02-26T19:49:10.736Z,3.10
2023-02-26T19:51:37.958Z,2.92
2023-02-26T19:54:05.053Z,3.20
2023-02-26T19:56:32.011Z,2.92
2023-02-26T19:58:58.917Z,3.00
2023-02-26T20:01:25.697Z,3.15
2023-02-26T20:03:52.440Z,3.33
2023-02-26T20:06:19.984Z,2.85
2023-02-26T20:08:46.716Z,3.10
2023-02-26T20:11:13.639Z,3.13
2023-02-26T20:13:40.851Z,3.08
2023-02-26T20:16:08.972Z,2.80
2023-02-26T20:18:36.166Z,2.85
2023-02-26T20:21:08.260Z,2.70
2023-02-26T20:23:37.538Z,3.20
2023-02-26T20:26:10.665Z,2.67
2023-02-26T20:28:37.709Z,2.67
2023-02-26T20:31:05.427Z,3.22
2023-02-26T20:33:34.532Z,2.70
2023-02-26T20:36:01.376Z,2.80
2023-02-26T20:38:28.824Z,2.55
2023-02-26T20:40:56.661Z,3.00
2023-02-26T20:43:25.070Z,3.25
2023-02-26T20:45:53.908Z,3.03
2023-02-26T20:48:21.005Z,2.77
2023-02-26T20:50:48.172Z,3.05
2023-02-26T20:53:15.143Z,3.13
2023-02-26T20:55:41.881Z,3.15
2023-02-26T20:58:08.618Z,3.35
2023-02-26T21:00:35.412Z,3.22
2023-02-26T21:03:02.240Z,3.53
2023-02-26T21:05:28.993Z,4.57
2023-02-26T21:07:55.784Z,4.53
2023-02-26T21:10:22.607Z,4.53
2023-02-26T21:12:51.599Z,4.70
2023-02-26T21:15:18.874Z,4.10
2023-02-26T21:17:45.695Z,3.95
2023-02-26T21:20:17.421Z,3.92
2023-02-26T21:22:45.562Z,4.30
2023-02-26T21:25:12.360Z,4.20
2023-02-26T21:27:39.108Z,3.70
2023-02-26T21:30:06.867Z,3.78
2023-02-26T21:32:33.786Z,4.05
2023-02-26T21:35:00.706Z,3.80
2023-02-26T21:37:27.617Z,4.22
2023-02-26T21:39:54.478Z,4.47
2023-02-26T21:42:22.433Z,4.70
2023-02-26T21:44:49.645Z,4.78
2023-02-26T21:47:16.656Z,4.80
2023-02-26T21:49:43.567Z,5.00
2023-02-26T21:52:11.939Z,5.20
2023-02-26T21:54:38.729Z,5.38
2023-02-26T21:57:05.676Z,6.30
2023-02-26T21:59:32.402Z,6.13
2023-02-26T22:01:59.436Z,6.82
2023-02-26T22:04:26.405Z,6.63
2023-02-26T22:06:53.192Z,7.10
2023-02-26T22:09:20.065Z,6.15
2023-02-26T22:11:46.992Z,7.03
2023-02-26T22:14:14.430Z,6.35
2023-02-26T22:16:41.322Z,6.15
2023-02-26T22:19:08.110Z,6.00
2023-02-26T22:21:34.865Z,6.07
2023-02-26T22:24:03.642Z,5.80
2023-02-26T22:26:30.974Z,5.70
2023-02-26T22:29:00.059Z,6.00
2023-02-26T22:31:31.951Z,5.57
2023-02-26T22:33:59.660Z,5.43
2023-02-26T22:36:27.522Z,4.78
2023-02-26T22:38:54.465Z,5.32
2023-02-26T22:41:21.425Z,4.93
2023-02-26T22:43:48.282Z,5.10
2023-02-26T22:46:17.002Z,5.00
2023-02-26T22:48:44.171Z,4.75
2023-02-26T22:51:10.888Z,5.05
2023-02-26T22:53:37.709Z,4.95
2023-02-26T22:56:04.759Z,4.90
2023-02-26T22:58:31.471Z,4.60
2023-02-26T23:01:00.512Z,4.45
2023-02-26T23:03:28.161Z,4.47
2023-02-26T23:05:54.902Z,4.28
2023-02-26T23:08:21.734Z,4.40
2023-02-26T23:10:48.619Z,4.47
2023-02-26T23:13:15.466Z,3.90
2023-02-26T23:15:42.184Z,4.20
2023-02-26T23:18:08.982Z,4.43
2023-02-26T23:20:35.704Z,3.75
2023-02-26T23:23:02.448Z,4.10
2023-02-26T23:25:29.235Z,4.10
2023-02-26T23:27:55.948Z,3.78
2023-02-26T23:30:22.725Z,3.78
2023-02-26T23:32:49.826Z,3.80
2023-02-26T23:35:16.612Z,3.38
2023-02-26T23:37:43.345Z,3.78
2023-02-26T23:40:11.494Z,3.70
2023-02-26T23:42:38.422Z,3.95
2023-02-26T23:45:05.548Z,3.70
2023-02-26T23:47:32.392Z,3.60
2023-02-26T23:49:59.116Z,3.60
2023-02-26T23:52:25.892Z,3.45
2023-02-26T23:54:54.382Z,3.40
2023-02-26T23:57:21.153Z,3.30
2023-02-26T23:59:47.877Z,3.80
